Time;durP1;ratioP1;P1;durP2;ratioP2;P2;SDS_P1;SDS_P2;PMS_P1;PMS_P2;Temp;Humidity;BMP_temperature;BMP_pressure;BME280_temperature;BME280_humidity;BME280_pressure;Samples;Min_cycle;Max_cycle;Signal;HPM_P1;HPM_P2
2024/04/06 00:01:21;;;;;;;10.63;6.13;;;12.20;99.90;;;;;;4896910;29;20456;-71
2024/04/06 00:03:49;;;;;;;9.10;5.37;;;12.20;99.90;;;;;;4896826;29;20477;-71
2024/04/06 00:06:15;;;;;;;7.93;5.87;;;12.30;99.90;;;;;;4881236;29;20516;-70
2024/04/06 00:08:43;;;;;;;11.83;5.60;;;12.30;99.90;;;;;;4896943;29;20498;-70
2024/04/06 00:11:11;;;;;;;8.03;5.07;;;12.30;99.90;;;;;;4896996;29;20477;-70
2024/04/06 00:13:38;;;;;;;7.03;4.97;;;12.40;99.90;;;;;;4881901;29;20473;-70
2024/04/06 00:16:05;;;;;;;10.13;5.43;;;12.40;99.90;;;;;;4900075;29;20837;-70
2024/04/06 00:18:33;;;;;;;10.73;7.03;;;12.40;99.90;;;;;;4916362;29;20816;-70
2024/04/06 00:21:00;;;;;;;8.60;4.90;;;12.40;99.90;;;;;;4885020;29;20467;-70
2024/04/06 00:23:28;;;;;;;8.43;5.50;;;12.40;99.90;;;;;;4884857;29;20473;-70
2024/04/06 00:25:55;;;;;;;6.43;4.20;;;12.40;99.90;;;;;;4900648;29;20536;-71
2024/04/06 00:28:25;;;;;;;10.33;4.40;;;12.50;99.90;;;;;;4884761;29;20453;-70
2024/04/06 00:30:52;;;;;;;9.67;4.90;;;12.50;99.90;;;;;;4900424;29;20461;-71
2024/04/06 00:33:19;;;;;;;13.30;4.87;;;12.50;99.90;;;;;;4904526;29;20877;-68
2024/04/06 00:35:45;;;;;;;6.90;4.50;;;12.60;99.90;;;;;;4903288;29;20457;-68
2024/04/06 00:38:13;;;;;;;8.93;4.27;;;12.60;99.90;;;;;;4902208;29;20504;-68
2024/04/06 00:40:39;;;;;;;8.70;4.20;;;12.60;99.90;;;;;;4885291;29;20491;-71
2024/04/06 00:43:07;;;;;;;5.70;4.30;;;12.60;99.90;;;;;;4900336;29;20491;-71
2024/04/06 00:45:34;;;;;;;6.90;3.90;;;12.70;99.90;;;;;;4900470;29;20449;-71
2024/04/06 00:48:02;;;;;;;8.50;4.47;;;12.70;99.90;;;;;;4900961;29;20864;-71
2024/04/06 00:50:30;;;;;;;7.47;4.17;;;12.70;99.90;;;;;;4900235;29;20536;-71
2024/04/06 00:52:57;;;;;;;7.00;4.07;;;12.70;99.90;;;;;;4884368;29;20464;-71
2024/04/06 00:55:23;;;;;;;8.83;4.47;;;12.80;99.90;;;;;;4900213;29;20452;-71
2024/04/06 00:57:51;;;;;;;6.30;3.53;;;12.80;99.90;;;;;;4900055;29;20833;-71
2024/04/06 01:00:18;;;;;;;6.13;3.93;;;12.80;99.90;;;;;;4899865;29;20477;-71
2024/04/06 01:02:46;;;;;;;4.77;3.50;;;12.90;99.90;;;;;;4884092;29;20469;-71
2024/04/06 01:05:13;;;;;;;6.33;4.07;;;12.90;99.90;;;;;;4899855;29;20525;-71
2024/04/06 01:07:44;;;;;;;4.90;3.30;;;12.90;99.90;;;;;;4899747;29;20449;-71
2024/04/06 01:10:10;;;;;;;6.47;3.87;;;12.90;99.90;;;;;;4900070;29;20517;-71
2024/04/06 01:12:38;;;;;;;11.10;4.07;;;12.90;99.90;;;;;;4899689;29;20477;-71
2024/04/06 01:15:05;;;;;;;15.03;5.13;;;13.00;99.90;;;;;;4915619;29;20449;-71
2024/04/06 01:17:32;;;;;;;7.67;4.20;;;13.00;99.90;;;;;;4899561;29;20501;-71
2024/04/06 01:20:00;;;;;;;9.20;4.30;;;13.00;99.90;;;;;;4883860;29;20457;-70
2024/04/06 01:22:27;;;;;;;7.23;3.70;;;13.00;99.90;;;;;;4899404;29;20472;-70
2024/04/06 01:24:55;;;;;;;6.37;3.90;;;13.00;99.90;;;;;;4899750;29;20869;-71
2024/04/06 01:27:22;;;;;;;9.47;4.20;;;13.00;99.90;;;;;;4914522;29;20449;-71
2024/04/06 01:29:48;;;;;;;8.17;4.40;;;13.00;99.90;;;;;;4914847;29;20998;-71
2024/04/06 01:32:16;;;;;;;7.53;3.90;;;13.00;99.90;;;;;;4899277;29;20473;-71
2024/04/06 01:34:42;;;;;;;6.40;4.23;;;13.00;99.90;;;;;;4883646;29;20539;-71
2024/04/06 01:37:09;;;;;;;8.07;3.57;;;12.90;99.90;;;;;;4899254;29;20456;-71
2024/04/06 01:39:35;;;;;;;5.97;3.23;;;13.00;99.90;;;;;;4899185;29;20450;-71
2024/04/06 01:42:05;;;;;;;5.90;3.40;;;12.90;99.90;;;;;;4899111;29;20469;-71
2024/04/06 01:44:31;;;;;;;6.10;4.10;;;12.90;99.90;;;;;;4899066;29;20464;-71
2024/04/06 01:46:58;;;;;;;6.00;3.83;;;12.90;99.90;;;;;;4899148;29;20449;-71
2024/04/06 01:49:25;;;;;;;6.03;4.03;;;12.90;99.90;;;;;;4883384;29;20505;-71
2024/04/06 01:51:53;;;;;;;7.17;4.43;;;12.90;99.90;;;;;;4899015;29;20476;-71
2024/04/06 01:54:19;;;;;;;8.53;4.50;;;12.90;99.90;;;;;;4901454;29;20502;-71
2024/04/06 01:56:46;;;;;;;8.13;4.00;;;12.90;99.90;;;;;;4903115;29;20829;-70
2024/04/06 01:59:14;;;;;;;5.93;4.47;;;12.90;99.90;;;;;;4900849;29;20505;-71
2024/04/06 02:01:43;;;;;;;10.50;4.43;;;12.90;99.90;;;;;;4900591;29;20815;-68
2024/04/06 02:04:10;;;;;;;8.50;4.90;;;12.90;99.90;;;;;;4915239;29;20445;-69
2024/04/06 02:06:37;;;;;;;9.00;4.00;;;12.90;99.90;;;;;;4914808;29;20946;-69
2024/04/06 02:09:03;;;;;;;6.00;3.57;;;12.90;99.90;;;;;;4899515;29;20449;-69
2024/04/06 02:11:30;;;;;;;8.20;3.83;;;12.90;99.90;;;;;;4898647;29;20572;-69
2024/04/06 02:13:57;;;;;;;7.33;3.70;;;12.90;99.90;;;;;;4898922;29;20445;-69
2024/04/06 02:16:25;;;;;;;7.57;3.70;;;12.90;99.90;;;;;;4898902;29;20456;-68
2024/04/06 02:18:52;;;;;;;5.70;4.20;;;12.80;99.90;;;;;;4898855;29;20837;-68
2024/04/06 02:21:19;;;;;;;7.60;4.13;;;12.80;99.90;;;;;;4882966;29;20501;-68
2024/04/06 02:23:45;;;;;;;8.57;5.07;;;12.80;99.90;;;;;;4898443;29;20473;-71
2024/04/06 02:26:12;;;;;;;9.10;4.80;;;12.70;99.90;;;;;;4898401;29;20453;-71
2024/04/06 02:28:39;;;;;;;6.03;3.97;;;12.70;99.90;;;;;;4898400;29;20449;-71
2024/04/06 02:31:08;;;;;;;5.97;3.93;;;12.70;99.90;;;;;;4898763;29;20606;-71
2024/04/06 02:33:36;;;;;;;6.40;4.93;;;12.70;99.90;;;;;;4898370;29;20467;-71
2024/04/06 02:36:04;;;;;;;6.10;4.70;;;12.60;99.90;;;;;;4898240;29;20453;-69
2024/04/06 02:38:30;;;;;;;5.80;4.60;;;12.60;99.90;;;;;;4897341;29;20453;-70
2024/04/06 02:40:58;;;;;;;6.07;4.40;;;12.60;99.90;;;;;;4883602;29;20453;-70
2024/04/06 02:43:24;;;;;;;5.63;4.60;;;12.60;99.90;;;;;;4882249;29;20477;-71
2024/04/06 02:45:51;;;;;;;6.97;4.30;;;12.60;99.90;;;;;;4898031;29;20434;-70
2024/04/06 02:48:18;;;;;;;6.37;4.10;;;12.50;99.90;;;;;;4897999;29;20802;-71
2024/04/06 02:50:46;;;;;;;5.67;3.93;;;12.50;99.90;;;;;;4897850;29;20983;-71
2024/04/06 02:53:13;;;;;;;6.87;4.43;;;12.50;99.90;;;;;;4897954;29;20825;-71
2024/04/06 02:55:40;;;;;;;8.07;4.70;;;12.40;99.90;;;;;;4882557;29;20500;-70
2024/04/06 02:58:08;;;;;;;6.17;4.53;;;12.40;99.90;;;;;;4897839;29;20536;-71
2024/04/06 03:00:37;;;;;;;8.30;4.70;;;12.40;99.90;;;;;;4913604;29;20461;-71
2024/04/06 03:03:04;;;;;;;5.40;4.90;;;12.40;99.90;;;;;;4897632;29;20567;-70
2024/04/06 03:05:31;;;;;;;9.33;5.73;;;12.30;99.90;;;;;;4897825;29;20475;-71
2024/04/06 03:07:59;;;;;;;6.43;5.30;;;12.30;99.90;;;;;;4897598;29;20480;-71
2024/04/06 03:10:26;;;;;;;7.27;5.40;;;12.30;99.90;;;;;;4913494;29;20476;-71
2024/04/06 03:12:52;;;;;;;7.57;6.30;;;12.30;99.90;;;;;;4882159;29;20874;-70
2024/04/06 03:15:20;;;;;;;7.67;6.83;;;12.30;99.90;;;;;;4881922;29;20445;-70
2024/04/06 03:17:46;;;;;;;8.30;6.60;;;12.20;99.90;;;;;;4897704;29;20445;-70
2024/04/06 03:20:14;;;;;;;8.70;6.77;;;12.20;99.90;;;;;;4913067;29;20817;-70
2024/04/06 03:22:40;;;;;;;7.37;6.67;;;12.20;99.90;;;;;;4881828;29;20474;-70
2024/04/06 03:25:09;;;;;;;9.00;6.80;;;12.20;99.90;;;;;;4897362;29;21023;-71
2024/04/06 03:27:35;;;;;;;8.53;7.33;;;12.10;99.90;;;;;;4897369;29;20449;-71
2024/04/06 03:30:03;;;;;;;8.63;7.70;;;12.10;99.90;;;;;;4897246;29;20477;-71
2024/04/06 03:32:29;;;;;;;11.23;9.10;;;12.10;99.90;;;;;;4913119;29;20508;-70
2024/04/06 03:34:57;;;;;;;9.17;8.27;;;12.10;99.90;;;;;;4897332;29;20508;-71
2024/04/06 03:37:24;;;;;;;10.80;8.90;;;12.10;99.90;;;;;;4897569;29;20456;-71
2024/04/06 03:39:51;;;;;;;9.57;8.67;;;12.00;99.90;;;;;;4881518;29;20457;-70
2024/04/06 03:42:19;;;;;;;10.40;8.00;;;12.00;99.90;;;;;;4897452;29;20501;-70
2024/04/06 03:44:46;;;;;;;8.40;7.60;;;12.00;99.90;;;;;;4897064;29;20464;-70
2024/04/06 03:47:12;;;;;;;8.77;7.93;;;12.00;99.90;;;;;;4912782;29;20446;-70
2024/04/06 03:49:39;;;;;;;7.40;6.60;;;11.90;99.90;;;;;;4896919;29;20455;-70
2024/04/06 03:52:06;;;;;;;9.20;7.70;;;11.90;99.90;;;;;;4897037;29;20489;-70
2024/04/06 03:54:33;;;;;;;7.93;7.23;;;11.90;99.90;;;;;;4897212;29;20969;-70
2024/04/06 03:56:59;;;;;;;7.70;7.00;;;11.80;99.90;;;;;;4897146;29;20485;-70
2024/04/06 03:59:28;;;;;;;7.50;6.77;;;11.80;99.90;;;;;;4897034;29;20471;-70
2024/04/06 04:01:54;;;;;;;7.30;6.60;;;11.80;99.90;;;;;;4881298;29;20841;-70
2024/04/06 04:04:21;;;;;;;7.70;7.00;;;11.80;99.90;;;;;;4912664;29;20446;-70
2024/04/06 04:06:48;;;;;;;7.47;6.87;;;11.80;99.90;;;;;;4897235;29;20490;-70
2024/04/06 04:09:16;;;;;;;8.90;8.10;;;11.80;99.90;;;;;;4897513;29;20468;-70
2024/04/06 04:11:43;;;;;;;9.30;8.30;;;11.80;99.90;;;;;;4897461;29;21001;-71
2024/04/06 04:14:10;;;;;;;10.47;9.57;;;11.70;99.90;;;;;;4897267;29;20944;-70
2024/04/06 04:16:38;;;;;;;9.60;8.80;;;11.80;99.90;;;;;;4897994;29;20548;-70
2024/04/06 04:19:05;;;;;;;11.03;10.03;;;11.70;99.90;;;;;;4896906;29;20445;-70
2024/04/06 04:21:31;;;;;;;10.13;9.23;;;11.80;99.90;;;;;;4881283;29;20964;-70
2024/04/06 04:23:58;;;;;;;11.97;10.30;;;11.80;99.90;;;;;;4882238;29;20572;-70
2024/04/06 04:26:25;;;;;;;11.20;10.30;;;11.80;99.90;;;;;;4897724;29;20903;-70
2024/04/06 04:28:52;;;;;;;12.13;11.03;;;11.80;99.90;;;;;;4896809;29;20472;-70
2024/04/06 04:31:18;;;;;;;12.43;11.13;;;11.80;99.90;;;;;;4896741;29;20477;-70
2024/04/06 04:33:47;;;;;;;11.70;10.60;;;11.80;99.90;;;;;;4881033;29;20500;-70
2024/04/06 04:36:13;;;;;;;12.43;11.33;;;11.90;99.90;;;;;;4896879;29;20492;-70
2024/04/06 04:38:41;;;;;;;11.53;10.43;;;11.90;99.90;;;;;;4896711;29;20456;-70
2024/04/06 04:41:07;;;;;;;13.27;12.27;;;11.90;99.90;;;;;;4912804;29;20525;-71
2024/04/06 04:43:34;;;;;;;12.27;11.43;;;11.90;99.90;;;;;;4896580;29;20477;-70
2024/04/06 04:46:01;;;;;;;11.60;10.70;;;11.90;99.90;;;;;;4896679;29;20461;-70
2024/04/06 04:48:56;;;;;;;12.77;11.70;;;11.90;99.90;;;;;;4896814;29;20445;-70
2024/04/06 04:51:23;;;;;;;13.53;12.40;;;12.00;99.90;;;;;;4896865;29;20481;-71
2024/04/06 04:53:50;;;;;;;14.27;13.17;;;12.00;99.90;;;;;;4896733;29;20465;-71
2024/04/06 04:56:16;;;;;;;13.20;12.10;;;12.00;99.90;;;;;;4896493;29;20468;-70
2024/04/06 04:58:44;;;;;;;12.93;11.73;;;12.00;99.90;;;;;;4896585;29;20449;-70
2024/04/06 05:01:10;;;;;;;13.20;12.00;;;12.00;99.90;;;;;;4897578;29;21028;-70
2024/04/06 05:03:38;;;;;;;14.17;13.03;;;12.00;99.90;;;;;;4899868;29;20472;-70
2024/04/06 05:06:06;;;;;;;13.23;12.07;;;12.00;99.90;;;;;;4899885;29;20457;-70
2024/04/06 05:08:33;;;;;;;13.77;12.67;;;12.00;99.90;;;;;;4899893;29;20445;-71
2024/04/06 05:10:59;;;;;;;13.23;12.17;;;12.00;99.90;;;;;;4899672;29;20564;-71
2024/04/06 05:13:26;;;;;;;13.80;12.70;;;12.10;99.90;;;;;;4899705;29;20469;-70
2024/04/06 05:15:54;;;;;;;13.87;12.70;;;12.10;99.90;;;;;;4899657;29;20457;-71
2024/04/06 05:18:22;;;;;;;13.80;12.70;;;12.10;99.90;;;;;;4899526;29;20817;-70
2024/04/06 05:20:52;;;;;;;13.83;12.63;;;12.10;99.90;;;;;;4899796;29;20629;-71
2024/04/06 05:23:21;;;;;;;14.70;13.50;;;12.10;99.90;;;;;;4900169;29;20879;-70
2024/04/06 05:25:49;;;;;;;13.97;12.80;;;12.10;99.90;;;;;;4899683;29;20453;-71
2024/04/06 05:28:17;;;;;;;15.67;14.27;;;12.10;99.90;;;;;;4899368;29;20947;-71
2024/04/06 05:30:44;;;;;;;14.90;13.60;;;12.20;99.90;;;;;;4899390;29;20550;-70
2024/04/06 05:33:11;;;;;;;15.17;13.87;;;12.20;99.90;;;;;;4916617;29;20476;-71
2024/04/06 05:35:37;;;;;;;17.30;16.00;;;12.10;99.90;;;;;;4904323;29;20550;-70
2024/04/06 05:38:05;;;;;;;14.70;13.40;;;12.20;99.90;;;;;;4901205;29;20460;-71
2024/04/06 05:40:36;;;;;;;15.87;14.10;;;12.20;99.90;;;;;;4884374;29;20482;-71
2024/04/06 05:43:03;;;;;;;17.97;16.23;;;12.20;99.90;;;;;;4899924;29;20504;-71
2024/04/06 05:45:30;;;;;;;15.93;14.57;;;12.20;99.90;;;;;;4899631;29;20449;-71
2024/04/06 05:48:03;;;;;;;16.43;14.90;;;12.30;99.90;;;;;;4899292;29;20452;-71
2024/04/06 05:50:29;;;;;;;22.00;20.00;;;12.30;99.90;;;;;;4899434;29;20469;-71
2024/04/06 05:52:56;;;;;;;16.50;15.10;;;12.30;99.90;;;;;;4899029;29;20473;-71
2024/04/06 05:55:23;;;;;;;17.47;15.97;;;12.40;99.90;;;;;;4914780;29;20449;-71
2024/04/06 05:57:52;;;;;;;16.37;15.10;;;12.40;99.90;;;;;;4898905;29;20450;-71
2024/04/06 06:00:18;;;;;;;15.67;14.37;;;12.50;99.90;;;;;;4899066;29;20457;-71
2024/04/06 06:02:46;;;;;;;16.67;15.07;;;12.50;99.90;;;;;;4899919;29;20623;-71
2024/04/06 06:05:13;;;;;;;17.10;15.50;;;12.60;99.90;;;;;;4899441;29;20453;-71
2024/04/06 06:07:40;;;;;;;18.20;16.80;;;12.60;99.90;;;;;;4898930;29;20457;-71
2024/04/06 06:10:07;;;;;;;17.13;15.60;;;12.70;99.90;;;;;;4914504;29;20455;-71
2024/04/06 06:12:35;;;;;;;18.20;16.60;;;12.70;99.90;;;;;;4898549;29;20545;-71
2024/04/06 06:15:03;;;;;;;16.27;14.97;;;12.70;99.90;;;;;;4898800;29;20452;-71
2024/04/06 06:17:30;;;;;;;16.80;15.40;;;12.80;99.90;;;;;;4898645;29;20465;-71
2024/04/06 06:19:56;;;;;;;19.40;17.50;;;12.80;99.90;;;;;;4898559;29;20449;-71
2024/04/06 06:22:24;;;;;;;17.17;15.70;;;12.90;99.90;;;;;;4898775;29;20923;-71
2024/04/06 06:24:50;;;;;;;17.13;15.77;;;12.90;99.90;;;;;;4898790;29;20852;-71
2024/04/06 06:27:17;;;;;;;19.20;17.63;;;13.00;99.90;;;;;;4882838;29;20460;-71
2024/04/06 06:29:44;;;;;;;16.70;15.30;;;13.00;99.90;;;;;;4898432;29;20548;-72
2024/04/06 06:32:12;;;;;;;18.13;16.60;;;13.00;99.90;;;;;;4898444;29;20477;-72
2024/04/06 06:34:39;;;;;;;16.90;15.17;;;13.10;99.90;;;;;;4882722;29;20493;-71
2024/04/06 06:37:06;;;;;;;16.20;14.90;;;13.20;99.90;;;;;;4882637;29;20449;-71
2024/04/06 06:39:32;;;;;;;16.13;14.73;;;13.30;99.90;;;;;;4898265;29;20505;-71
2024/04/06 06:42:00;;;;;;;15.33;14.00;;;13.40;99.90;;;;;;4898296;29;20560;-71
2024/04/06 06:44:26;;;;;;;13.90;12.67;;;13.60;99.90;;;;;;4898664;29;20457;-71
2024/04/06 06:46:53;;;;;;;13.93;12.50;;;13.70;99.90;;;;;;4898876;29;20867;-71
2024/04/06 06:49:21;;;;;;;14.30;13.00;;;13.80;99.90;;;;;;4900756;29;20449;-71
2024/04/06 06:51:48;;;;;;;11.57;10.47;;;13.80;99.90;;;;;;4899341;29;20489;-71
2024/04/06 06:54:14;;;;;;;13.57;12.37;;;13.80;99.90;;;;;;4899924;29;20539;-72
2024/04/06 06:56:42;;;;;;;11.93;10.50;;;13.90;99.90;;;;;;4898824;29;20548;-71
2024/04/06 06:59:08;;;;;;;11.03;10.17;;;13.90;99.90;;;;;;4883329;29;20449;-72
2024/04/06 07:01:36;;;;;;;10.90;10.10;;;13.90;99.90;;;;;;4898145;29;20453;-72
2024/04/06 07:04:02;;;;;;;10.60;9.60;;;14.00;99.90;;;;;;4882569;29;20449;-72
2024/04/06 07:06:31;;;;;;;9.90;9.10;;;14.00;99.90;;;;;;4898088;29;20453;-72
2024/04/06 07:08:57;;;;;;;9.83;8.80;;;14.10;99.90;;;;;;4898427;29;20508;-72
2024/04/06 07:11:25;;;;;;;9.63;8.77;;;14.10;99.90;;;;;;4897792;29;20560;-71
2024/04/06 07:13:51;;;;;;;9.13;8.20;;;14.10;99.90;;;;;;4898435;29;20504;-72
2024/04/06 07:16:18;;;;;;;10.93;9.40;;;14.20;99.90;;;;;;4897760;29;20453;-72
2024/04/06 07:18:46;;;;;;;13.70;12.33;;;14.20;99.90;;;;;;4881958;29;20453;-72
2024/04/06 07:21:15;;;;;;;9.37;8.43;;;14.30;99.90;;;;;;4913328;29;20536;-72
2024/04/06 07:23:43;;;;;;;8.70;7.60;;;14.40;99.90;;;;;;4881581;29;20473;-72
2024/04/06 07:26:11;;;;;;;7.77;7.17;;;14.50;99.90;;;;;;4898302;29;20936;-72
2024/04/06 07:28:37;;;;;;;8.10;7.10;;;14.50;99.90;;;;;;4898129;29;20487;-71
2024/04/06 07:31:05;;;;;;;9.60;7.83;;;14.60;99.90;;;;;;4897509;29;20481;-72
2024/04/06 07:33:31;;;;;;;8.63;7.80;;;14.70;99.90;;;;;;4881827;29;20469;-72
2024/04/06 07:35:59;;;;;;;6.87;6.27;;;14.80;99.90;;;;;;4897305;29;20456;-72
2024/04/06 07:38:25;;;;;;;9.10;6.33;;;14.90;99.90;;;;;;4897296;29;20445;-72
2024/04/06 07:41:01;;;;;;;7.13;6.50;;;14.90;99.90;;;;;;4912982;29;20496;-72
2024/04/06 07:43:28;;;;;;;7.30;5.90;;;15.00;99.90;;;;;;4897196;29;20496;-72
2024/04/06 07:45:56;;;;;;;6.90;6.30;;;15.10;99.90;;;;;;4881911;29;20465;-72
2024/04/06 07:48:22;;;;;;;7.00;6.30;;;15.20;99.90;;;;;;4897468;29;20469;-72
2024/04/06 07:50:49;;;;;;;6.90;6.20;;;15.20;99.90;;;;;;4897805;29;20457;-72
2024/04/06 07:53:16;;;;;;;8.10;6.90;;;15.30;99.90;;;;;;4912959;29;20469;-71
2024/04/06 07:55:43;;;;;;;7.83;5.97;;;15.30;99.90;;;;;;4897788;29;20460;-72
2024/04/06 07:58:11;;;;;;;6.53;5.60;;;15.40;99.90;;;;;;4881469;29;20455;-71
2024/04/06 08:00:39;;;;;;;7.23;5.40;;;15.50;99.90;;;;;;4897560;29;20459;-71
2024/04/06 08:03:05;;;;;;;7.53;4.97;;;15.50;99.90;;;;;;4897232;29;20881;-72
2024/04/06 08:05:33;;;;;;;7.10;5.70;;;15.70;99.90;;;;;;4897939;29;20453;-72
2024/04/06 08:07:59;;;;;;;5.83;5.33;;;15.80;99.90;;;;;;4898190;29;20505;-72
2024/04/06 08:10:26;;;;;;;10.13;6.07;;;16.10;99.90;;;;;;4898076;29;20449;-72
2024/04/06 08:12:54;;;;;;;6.10;5.50;;;16.30;99.90;;;;;;4897683;29;20470;-71
2024/04/06 08:15:23;;;;;;;6.27;4.60;;;16.40;99.90;;;;;;4913736;29;20452;-72
2024/04/06 08:17:49;;;;;;;5.70;4.20;;;16.60;99.90;;;;;;4898029;29;20935;-72
2024/04/06 08:20:17;;;;;;;4.83;4.33;;;16.80;99.90;;;;;;4913721;29;20790;-72
2024/04/06 08:22:44;;;;;;;10.73;5.10;;;16.90;99.90;;;;;;4897595;29;20440;-71
2024/04/06 08:25:12;;;;;;;6.70;4.23;;;17.10;99.90;;;;;;4898053;29;20456;-72
2024/04/06 08:27:38;;;;;;;4.93;4.13;;;17.20;99.90;;;;;;4897726;29;20568;-72
2024/04/06 08:30:07;;;;;;;6.67;4.27;;;17.40;99.90;;;;;;4898080;29;20479;-72
2024/04/06 08:32:38;;;;;;;6.67;3.87;;;17.50;99.90;;;;;;4897644;29;20484;-72
2024/04/06 08:35:10;;;;;;;6.00;3.80;;;17.70;99.90;;;;;;4897684;29;20412;-72
2024/04/06 08:37:36;;;;;;;6.43;5.80;;;17.80;99.90;;;;;;4886394;29;20453;-72
2024/04/06 08:40:03;;;;;;;6.43;3.40;;;18.00;99.90;;;;;;4901301;29;20456;-72
2024/04/06 08:42:30;;;;;;;5.40;3.60;;;18.10;99.90;;;;;;4901157;29;20479;-72
2024/04/06 08:44:58;;;;;;;4.37;3.50;;;18.20;99.90;;;;;;4885651;29;20857;-72
2024/04/06 08:47:25;;;;;;;4.03;3.63;;;18.30;99.90;;;;;;4901597;29;20453;-72
2024/04/06 08:49:56;;;;;;;4.23;3.03;;;18.40;99.90;;;;;;4901061;29;20793;-72
2024/04/06 08:52:23;;;;;;;4.00;3.00;;;18.60;99.90;;;;;;4900940;29;20459;-72
2024/04/06 08:54:51;;;;;;;5.30;2.60;;;18.70;99.90;;;;;;4917068;29;20533;-72
2024/04/06 08:57:18;;;;;;;3.70;2.80;;;18.70;99.90;;;;;;4901035;29;20458;-72
2024/04/06 08:59:46;;;;;;;4.00;3.00;;;18.80;99.90;;;;;;4885462;29;20485;-72
2024/04/06 09:02:12;;;;;;;3.00;2.20;;;18.80;99.90;;;;;;4916791;29;20473;-72
2024/04/06 09:04:39;;;;;;;3.90;2.90;;;18.80;99.90;;;;;;4901126;29;20460;-72
2024/04/06 09:07:08;;;;;;;2.40;2.20;;;18.90;99.90;;;;;;4885036;29;20424;-72
2024/04/06 09:09:37;;;;;;;5.03;2.70;;;19.00;99.90;;;;;;4915654;29;20543;-72
2024/04/06 09:12:04;;;;;;;3.50;2.33;;;19.10;99.90;;;;;;4917199;29;20221;-72
2024/04/06 09:14:32;;;;;;;3.70;2.30;;;19.20;99.90;;;;;;4904970;29;20446;-72
2024/04/06 09:16:59;;;;;;;2.90;2.30;;;19.30;99.90;;;;;;4902144;29;20480;-71
2024/04/06 09:19:26;;;;;;;4.40;2.37;;;19.40;99.90;;;;;;4885796;29;20460;-72
2024/04/06 09:21:53;;;;;;;3.70;2.27;;;19.60;99.90;;;;;;4900853;29;20476;-72
2024/04/06 09:24:26;;;;;;;3.17;2.20;;;19.70;99.90;;;;;;4899857;29;20456;-72
2024/04/06 09:27:02;;;;;;;2.87;2.33;;;19.80;99.90;;;;;;4899718;29;20434;-72
2024/04/06 09:29:30;;;;;;;4.60;2.20;;;19.90;99.90;;;;;;4900194;29;20790;-72
2024/04/06 09:32:01;;;;;;;2.67;1.93;;;20.00;99.90;;;;;;4899445;29;20480;-72
2024/04/06 09:34:28;;;;;;;2.23;1.43;;;20.00;99.90;;;;;;4899937;29;20525;-73
2024/04/06 09:37:01;;;;;;;2.87;1.90;;;20.00;99.90;;;;;;4899495;29;21011;-72
2024/04/06 09:39:33;;;;;;;2.00;1.40;;;20.10;99.90;;;;;;4915183;29;20529;-72
2024/04/06 09:42:01;;;;;;;4.00;1.80;;;20.20;99.90;;;;;;4899880;29;20488;-72
2024/04/06 09:44:28;;;;;;;3.63;1.90;;;20.20;99.90;;;;;;4901555;29;20461;-73
2024/04/06 09:46:55;;;;;;;3.43;1.70;;;20.20;99.90;;;;;;4888150;29;20460;-73
2024/04/06 09:49:24;;;;;;;2.33;1.63;;;20.20;99.90;;;;;;4899311;29;20504;-73
2024/04/06 09:51:51;;;;;;;4.00;1.80;;;20.20;99.90;;;;;;4899025;29;20485;-73
2024/04/06 09:54:18;;;;;;;3.10;1.67;;;20.30;99.90;;;;;;4899151;29;20572;-74
2024/04/06 09:56:47;;;;;;;2.70;1.47;;;20.40;99.90;;;;;;4883426;29;20564;-73
2024/04/06 09:59:21;;;;;;;3.10;1.50;;;20.50;99.90;;;;;;4898956;29;20441;-73
2024/04/06 10:01:48;;;;;;;3.00;1.67;;;20.50;99.90;;;;;;4899055;29;20503;-74
2024/04/06 10:04:25;;;;;;;2.27;1.30;;;20.60;99.90;;;;;;4899047;29;20472;-73
2024/04/06 10:06:53;;;;;;;3.10;1.77;;;20.70;99.90;;;;;;4899212;29;20464;-74
2024/04/06 10:09:20;;;;;;;2.00;1.20;;;20.80;99.90;;;;;;4899132;29;20452;-73
2024/04/06 10:11:58;;;;;;;2.47;1.50;;;20.90;99.90;;;;;;4898519;29;20596;-73
2024/04/06 10:14:26;;;;;;;2.97;1.60;;;20.90;99.90;;;;;;4898929;29;20425;-73
2024/04/06 10:17:05;;;;;;;2.97;1.50;;;21.00;99.90;;;;;;4914389;29;20504;-73
2024/04/06 10:19:32;;;;;;;2.70;1.60;;;21.00;99.90;;;;;;4898628;29;20433;-72
2024/04/06 10:22:03;;;;;;;2.70;1.30;;;21.10;99.90;;;;;;4898535;29;20469;-73
2024/04/06 10:24:30;;;;;;;2.20;1.83;;;21.10;99.90;;;;;;4898693;29;20799;-74
2024/04/06 10:26:58;;;;;;;4.30;1.60;;;21.20;99.90;;;;;;4898387;29;20512;-73
2024/04/06 10:29:25;;;;;;;3.27;1.70;;;21.20;99.90;;;;;;4898958;29;20807;-73
2024/04/06 10:31:52;;;;;;;3.37;1.90;;;21.20;99.90;;;;;;4898147;29;20489;-73
2024/04/06 10:34:19;;;;;;;2.33;1.37;;;21.30;99.90;;;;;;4898876;29;20445;-73
2024/04/06 10:36:46;;;;;;;2.73;1.37;;;21.30;99.90;;;;;;4898267;29;20450;-74
2024/04/06 10:39:14;;;;;;;2.60;1.30;;;21.40;99.90;;;;;;4898703;29;20442;-73
2024/04/06 10:41:42;;;;;;;2.43;1.60;;;21.50;99.90;;;;;;4898320;29;20867;-73
2024/04/06 10:44:11;;;;;;;2.63;1.30;;;21.60;99.90;;;;;;4898048;29;20547;-73
2024/04/06 10:46:37;;;;;;;2.80;1.40;;;21.70;99.90;;;;;;4898081;29;20583;-73
2024/04/06 10:49:10;;;;;;;4.10;1.40;;;21.70;99.90;;;;;;4898182;29;20445;-73
2024/04/06 10:51:37;;;;;;;2.37;1.60;;;21.80;99.90;;;;;;4898399;29;20890;-73
2024/04/06 10:54:05;;;;;;;3.40;1.90;;;21.80;99.90;;;;;;4897998;29;20455;-73
2024/04/06 10:56:32;;;;;;;5.93;3.83;;;21.90;99.90;;;;;;4897882;29;20489;-73
2024/04/06 10:59:00;;;;;;;4.17;3.33;;;21.90;99.90;;;;;;4898139;29;20800;-73
2024/04/06 11:01:34;;;;;;;2.70;1.50;;;21.90;99.90;;;;;;4897645;29;20473;-74
2024/04/06 11:04:02;;;;;;;2.97;1.53;;;22.00;99.90;;;;;;4897813;29;20430;-74
2024/04/06 11:06:29;;;;;;;1.97;1.50;;;22.00;99.90;;;;;;4898241;29;20457;-73
2024/04/06 11:09:00;;;;;;;2.50;1.60;;;22.00;99.90;;;;;;4897683;29;20827;-74
2024/04/06 11:11:27;;;;;;;2.97;2.10;;;22.00;99.90;;;;;;4913542;29;20459;-74
2024/04/06 11:13:57;;;;;;;2.00;1.50;;;22.10;99.90;;;;;;4882032;29;21014;-73
2024/04/06 11:16:24;;;;;;;2.83;2.00;;;22.10;99.90;;;;;;4897421;29;20456;-73
2024/04/06 11:18:53;;;;;;;3.70;2.20;;;22.10;99.90;;;;;;4881839;29;20457;-73
2024/04/06 11:21:19;;;;;;;2.50;1.80;;;22.20;99.90;;;;;;4897509;29;20456;-73
2024/04/06 11:23:47;;;;;;;3.60;2.50;;;22.30;99.90;;;;;;4913032;29;20473;-74
2024/04/06 11:26:19;;;;;;;3.90;2.50;;;22.40;99.90;;;;;;4881771;29;20445;-74
2024/04/06 11:28:46;;;;;;;3.03;2.40;;;22.40;99.90;;;;;;4897542;29;20433;-73
2024/04/06 11:31:16;;;;;;;13.10;2.77;;;22.50;99.90;;;;;;4897538;29;20449;-73
2024/04/06 11:33:44;;;;;;;2.67;1.90;;;22.60;99.90;;;;;;4897167;29;20484;-73
2024/04/06 11:36:11;;;;;;;4.83;3.60;;;22.60;99.90;;;;;;4881610;29;21020;-73
2024/04/06 11:38:38;;;;;;;3.80;2.70;;;22.70;99.90;;;;;;4897291;29;20453;-74
2024/04/06 11:41:05;;;;;;;7.67;4.80;;;22.80;99.90;;;;;;4897252;29;20449;-73
2024/04/06 11:43:33;;;;;;;5.17;4.67;;;22.80;99.90;;;;;;4896969;29;20999;-74
2024/04/06 11:45:59;;;;;;;2.83;1.67;;;22.80;99.90;;;;;;4897169;29;20437;-74
2024/04/06 11:48:26;;;;;;;2.43;1.90;;;22.80;99.90;;;;;;4912851;29;20798;-73
2024/04/06 11:50:53;;;;;;;3.30;2.30;;;22.80;99.90;;;;;;4897075;29;20449;-74
2024/04/06 11:53:21;;;;;;;3.20;1.63;;;22.90;99.90;;;;;;4896949;29;20900;-73
2024/04/06 11:55:47;;;;;;;2.80;2.10;;;22.90;99.90;;;;;;4897009;29;20793;-73
2024/04/06 11:58:15;;;;;;;3.37;1.77;;;22.90;99.90;;;;;;4897067;29;20453;-74
2024/04/06 12:00:41;;;;;;;5.47;1.60;;;23.00;99.90;;;;;;4897097;29;20453;-73
2024/04/06 12:03:09;;;;;;;4.50;1.80;;;23.00;99.90;;;;;;4912550;29;20476;-74
2024/04/06 12:05:35;;;;;;;3.90;2.13;;;23.00;99.90;;;;;;4896950;29;20500;-74
2024/04/06 12:08:02;;;;;;;3.73;2.47;;;23.00;99.90;;;;;;4897257;29;20453;-74
2024/04/06 12:10:31;;;;;;;6.90;2.10;;;23.00;99.90;;;;;;4898762;29;20449;-72
2024/04/06 12:12:58;;;;;;;3.40;1.57;;;23.10;99.90;;;;;;4900674;29;20571;-73
2024/04/06 12:15:24;;;;;;;2.13;1.70;;;23.10;99.90;;;;;;4900753;29;20872;-73
2024/04/06 12:17:52;;;;;;;3.40;2.30;;;23.20;99.90;;;;;;4900760;29;20457;-73
2024/04/06 12:20:18;;;;;;;2.97;1.80;;;23.20;99.90;;;;;;4900921;29;20512;-73
2024/04/06 12:22:45;;;;;;;3.00;2.00;;;23.30;99.90;;;;;;4900584;29;20469;-73
2024/04/06 12:25:12;;;;;;;2.70;1.67;;;23.30;99.90;;;;;;4900570;29;20449;-72
2024/04/06 12:27:40;;;;;;;3.70;1.83;;;23.40;99.90;;;;;;4916320;29;20457;-73
2024/04/06 12:30:12;;;;;;;2.90;1.37;;;23.40;99.90;;;;;;4900571;29;21026;-73
2024/04/06 12:32:39;;;;;;;2.40;2.00;;;23.40;99.90;;;;;;4916286;29;20510;-73
2024/04/06 12:35:06;;;;;;;2.90;2.30;;;23.40;99.90;;;;;;4884995;29;20943;-73
2024/04/06 12:37:33;;;;;;;4.80;3.27;;;23.40;99.90;;;;;;4900355;29;20548;-73
2024/04/06 12:39:59;;;;;;;3.57;2.83;;;23.40;99.90;;;;;;4884629;29;20453;-72
2024/04/06 12:42:27;;;;;;;4.33;3.90;;;23.50;99.90;;;;;;4900508;29;20469;-72
2024/04/06 12:44:54;;;;;;;2.60;1.90;;;23.50;99.90;;;;;;4900130;29;21094;-73